sensor_id;sensor_type;location;lat;lon;timestamp;P1;durP1;ratioP1;P2;durP2;ratioP2
54328;SDS011;40710;51.120;13.136;2022-07-09T00:00:45;3.85;;;2.58;;
54328;SDS011;40710;51.120;13.136;2022-07-09T00:03:10;5.10;;;2.80;;
54328;SDS011;40710;51.120;13.136;2022-07-09T00:05:34;6.60;;;3.35;;
54328;SDS011;40710;51.120;13.136;2022-07-09T00:07:58;6.38;;;2.83;;
54328;SDS011;40710;51.120;13.136;2022-07-09T00:10:23;4.03;;;3.00;;
54328;SDS011;40710;51.120;13.136;2022-07-09T00:12:47;5.68;;;2.78;;
54328;SDS011;40710;51.120;13.136;2022-07-09T00:15:11;5.50;;;2.97;;
54328;SDS011;40710;51.120;13.136;2022-07-09T00:17:36;5.32;;;3.25;;
54328;SDS011;40710;51.120;13.136;2022-07-09T00:20:01;8.23;;;2.80;;
54328;SDS011;40710;51.120;13.136;2022-07-09T00:22:28;6.28;;;3.33;;
54328;SDS011;40710;51.120;13.136;2022-07-09T00:24:53;5.40;;;3.50;;
54328;SDS011;40710;51.120;13.136;2022-07-09T00:27:17;6.82;;;3.33;;
54328;SDS011;40710;51.120;13.136;2022-07-09T00:29:41;6.70;;;3.20;;
54328;SDS011;40710;51.120;13.136;2022-07-09T00:32:06;7.00;;;3.38;;
54328;SDS011;40710;51.120;13.136;2022-07-09T00:34:31;5.32;;;3.20;;
54328;SDS011;40710;51.120;13.136;2022-07-09T00:36:55;5.20;;;3.00;;
54328;SDS011;40710;51.120;13.136;2022-07-09T00:39:20;7.72;;;3.30;;
54328;SDS011;40710;51.120;13.136;2022-07-09T00:41:44;6.43;;;3.40;;
54328;SDS011;40710;51.120;13.136;2022-07-09T00:44:08;9.75;;;3.50;;
54328;SDS011;40710;51.120;13.136;2022-07-09T00:46:33;5.43;;;3.33;;
54328;SDS011;40710;51.120;13.136;2022-07-09T00:48:57;6.50;;;3.22;;
54328;SDS011;40710;51.120;13.136;2022-07-09T00:51:27;7.63;;;3.25;;
54328;SDS011;40710;51.120;13.136;2022-07-09T00:53:51;6.82;;;3.22;;
54328;SDS011;40710;51.120;13.136;2022-07-09T00:56:16;4.88;;;3.17;;
54328;SDS011;40710;51.120;13.136;2022-07-09T00:58:41;6.15;;;3.50;;
54328;SDS011;40710;51.120;13.136;2022-07-09T01:01:06;5.78;;;3.35;;
54328;SDS011;40710;51.120;13.136;2022-07-09T01:03:30;5.57;;;3.20;;
54328;SDS011;40710;51.120;13.136;2022-07-09T01:05:55;5.30;;;3.28;;
54328;SDS011;40710;51.120;13.136;2022-07-09T01:08:20;6.10;;;3.10;;
54328;SDS011;40710;51.120;13.136;2022-07-09T01:10:44;11.98;;;3.60;;
54328;SDS011;40710;51.120;13.136;2022-07-09T01:13:09;5.15;;;3.17;;
54328;SDS011;40710;51.120;13.136;2022-07-09T01:15:35;7.22;;;3.67;;
54328;SDS011;40710;51.120;13.136;2022-07-09T01:17:59;8.23;;;4.07;;
54328;SDS011;40710;51.120;13.136;2022-07-09T01:20:25;6.57;;;4.38;;
54328;SDS011;40710;51.120;13.136;2022-07-09T01:22:51;7.05;;;3.45;;
54328;SDS011;40710;51.120;13.136;2022-07-09T01:25:16;4.90;;;3.13;;
54328;SDS011;40710;51.120;13.136;2022-07-09T01:27:41;6.88;;;3.55;;
54328;SDS011;40710;51.120;13.136;2022-07-09T01:30:05;5.32;;;3.60;;
54328;SDS011;40710;51.120;13.136;2022-07-09T01:32:30;5.18;;;3.15;;
54328;SDS011;40710;51.120;13.136;2022-07-09T01:34:54;5.53;;;3.45;;
54328;SDS011;40710;51.120;13.136;2022-07-09T01:37:19;8.65;;;3.47;;
54328;SDS011;40710;51.120;13.136;2022-07-09T01:39:43;5.88;;;3.45;;
54328;SDS011;40710;51.120;13.136;2022-07-09T01:42:17;5.35;;;3.17;;
54328;SDS011;40710;51.120;13.136;2022-07-09T01:44:42;3.90;;;2.80;;
54328;SDS011;40710;51.120;13.136;2022-07-09T01:47:06;6.28;;;2.88;;
54328;SDS011;40710;51.120;13.136;2022-07-09T01:49:31;5.82;;;2.83;;
54328;SDS011;40710;51.120;13.136;2022-07-09T01:51:55;5.57;;;3.15;;
54328;SDS011;40710;51.120;13.136;2022-07-09T01:54:19;7.00;;;3.40;;
54328;SDS011;40710;51.120;13.136;2022-07-09T01:56:44;4.78;;;3.20;;
54328;SDS011;40710;51.120;13.136;2022-07-09T01:59:08;5.70;;;2.97;;
54328;SDS011;40710;51.120;13.136;2022-07-09T02:01:32;6.53;;;3.08;;
54328;SDS011;40710;51.120;13.136;2022-07-09T02:03:57;4.47;;;2.83;;
54328;SDS011;40710;51.120;13.136;2022-07-09T02:06:21;5.00;;;2.95;;
54328;SDS011;40710;51.120;13.136;2022-07-09T02:08:45;5.78;;;3.40;;
54328;SDS011;40710;51.120;13.136;2022-07-09T02:11:10;4.55;;;3.03;;
54328;SDS011;40710;51.120;13.136;2022-07-09T02:13:34;7.20;;;3.17;;
54328;SDS011;40710;51.120;13.136;2022-07-09T02:15:59;5.43;;;3.03;;
54328;SDS011;40710;51.120;13.136;2022-07-09T02:18:25;7.07;;;3.35;;
54328;SDS011;40710;51.120;13.136;2022-07-09T02:20:49;12.70;;;3.05;;
54328;SDS011;40710;51.120;13.136;2022-07-09T02:23:14;6.57;;;3.25;;
54328;SDS011;40710;51.120;13.136;2022-07-09T02:25:38;5.32;;;3.35;;
54328;SDS011;40710;51.120;13.136;2022-07-09T02:28:03;5.18;;;2.95;;
54328;SDS011;40710;51.120;13.136;2022-07-09T02:30:27;4.95;;;2.70;;
54328;SDS011;40710;51.120;13.136;2022-07-09T02:32:52;6.20;;;3.38;;
54328;SDS011;40710;51.120;13.136;2022-07-09T02:35:16;4.65;;;2.92;;
54328;SDS011;40710;51.120;13.136;2022-07-09T02:37:40;5.75;;;2.83;;
54328;SDS011;40710;51.120;13.136;2022-07-09T02:40:06;4.95;;;2.67;;
54328;SDS011;40710;51.120;13.136;2022-07-09T02:42:31;6.18;;;3.00;;
54328;SDS011;40710;51.120;13.136;2022-07-09T02:44:55;4.70;;;2.72;;
54328;SDS011;40710;51.120;13.136;2022-07-09T02:47:20;4.40;;;2.78;;
54328;SDS011;40710;51.120;13.136;2022-07-09T02:49:44;5.47;;;2.70;;
54328;SDS011;40710;51.120;13.136;2022-07-09T02:52:09;5.25;;;3.10;;
54328;SDS011;40710;51.120;13.136;2022-07-09T02:54:33;6.30;;;2.55;;
54328;SDS011;40710;51.120;13.136;2022-07-09T02:56:58;5.28;;;2.60;;
54328;SDS011;40710;51.120;13.136;2022-07-09T02:59:23;4.68;;;2.72;;
54328;SDS011;40710;51.120;13.136;2022-07-09T03:01:47;7.55;;;3.00;;
54328;SDS011;40710;51.120;13.136;2022-07-09T03:04:11;3.97;;;2.50;;
54328;SDS011;40710;51.120;13.136;2022-07-09T03:06:36;4.60;;;2.83;;
54328;SDS011;40710;51.120;13.136;2022-07-09T03:09:00;5.07;;;2.88;;
54328;SDS011;40710;51.120;13.136;2022-07-09T03:11:24;4.38;;;2.55;;
54328;SDS011;40710;51.120;13.136;2022-07-09T03:13:49;4.72;;;2.72;;
54328;SDS011;40710;51.120;13.136;2022-07-09T03:16:13;4.68;;;2.80;;
54328;SDS011;40710;51.120;13.136;2022-07-09T03:18:38;4.60;;;2.60;;
54328;SDS011;40710;51.120;13.136;2022-07-09T03:21:03;5.40;;;2.88;;
54328;SDS011;40710;51.120;13.136;2022-07-09T03:23:27;5.15;;;2.92;;
54328;SDS011;40710;51.120;13.136;2022-07-09T03:25:52;4.85;;;2.85;;
54328;SDS011;40710;51.120;13.136;2022-07-09T03:28:16;5.57;;;3.03;;
54328;SDS011;40710;51.120;13.136;2022-07-09T03:30:40;7.40;;;2.95;;
54328;SDS011;40710;51.120;13.136;2022-07-09T03:33:05;6.75;;;2.92;;
54328;SDS011;40710;51.120;13.136;2022-07-09T03:35:29;8.02;;;2.95;;
54328;SDS011;40710;51.120;13.136;2022-07-09T03:37:53;6.75;;;2.80;;
54328;SDS011;40710;51.120;13.136;2022-07-09T03:40:18;4.57;;;2.53;;
54328;SDS011;40710;51.120;13.136;2022-07-09T03:42:42;5.82;;;3.38;;
54328;SDS011;40710;51.120;13.136;2022-07-09T03:45:07;5.97;;;3.30;;
54328;SDS011;40710;51.120;13.136;2022-07-09T03:47:31;5.20;;;2.67;;
54328;SDS011;40710;51.120;13.136;2022-07-09T03:49:56;5.68;;;3.10;;
54328;SDS011;40710;51.120;13.136;2022-07-09T03:52:20;5.75;;;2.83;;
54328;SDS011;40710;51.120;13.136;2022-07-09T03:54:44;4.60;;;2.63;;
54328;SDS011;40710;51.120;13.136;2022-07-09T03:57:09;4.30;;;2.78;;
54328;SDS011;40710;51.120;13.136;2022-07-09T03:59:35;3.92;;;2.50;;
54328;SDS011;40710;51.120;13.136;2022-07-09T04:02:00;5.05;;;2.70;;
54328;SDS011;40710;51.120;13.136;2022-07-09T04:04:24;5.57;;;2.88;;
54328;SDS011;40710;51.120;13.136;2022-07-09T04:06:49;6.05;;;2.92;;
54328;SDS011;40710;51.120;13.136;2022-07-09T04:09:13;4.80;;;2.80;;
54328;SDS011;40710;51.120;13.136;2022-07-09T04:11:38;8.10;;;2.78;;
54328;SDS011;40710;51.120;13.136;2022-07-09T04:14:02;4.78;;;2.60;;
54328;SDS011;40710;51.120;13.136;2022-07-09T04:16:27;8.98;;;3.05;;
54328;SDS011;40710;51.120;13.136;2022-07-09T04:18:52;7.47;;;2.30;;
54328;SDS011;40710;51.120;13.136;2022-07-09T04:21:16;4.30;;;2.70;;
54328;SDS011;40710;51.120;13.136;2022-07-09T04:23:41;4.15;;;2.70;;
54328;SDS011;40710;51.120;13.136;2022-07-09T04:26:05;4.50;;;2.85;;
54328;SDS011;40710;51.120;13.136;2022-07-09T04:28:30;5.32;;;2.83;;
54328;SDS011;40710;51.120;13.136;2022-07-09T04:30:55;5.55;;;2.60;;
54328;SDS011;40710;51.120;13.136;2022-07-09T04:33:20;4.88;;;2.80;;
54328;SDS011;40710;51.120;13.136;2022-07-09T04:35:44;5.95;;;3.22;;
54328;SDS011;40710;51.120;13.136;2022-07-09T04:38:10;4.85;;;2.75;;
54328;SDS011;40710;51.120;13.136;2022-07-09T04:40:36;5.63;;;2.40;;
54328;SDS011;40710;51.120;13.136;2022-07-09T04:43:00;4.60;;;2.90;;
54328;SDS011;40710;51.120;13.136;2022-07-09T04:45:24;6.30;;;2.60;;
54328;SDS011;40710;51.120;13.136;2022-07-09T04:47:49;4.88;;;2.38;;
54328;SDS011;40710;51.120;13.136;2022-07-09T04:50:13;3.90;;;2.67;;
54328;SDS011;40710;51.120;13.136;2022-07-09T04:52:38;6.15;;;2.40;;
54328;SDS011;40710;51.120;13.136;2022-07-09T04:55:03;5.55;;;2.30;;
54328;SDS011;40710;51.120;13.136;2022-07-09T04:57:28;5.10;;;2.30;;
54328;SDS011;40710;51.120;13.136;2022-07-09T04:59:52;8.10;;;2.65;;
54328;SDS011;40710;51.120;13.136;2022-07-09T05:02:16;6.03;;;2.63;;
54328;SDS011;40710;51.120;13.136;2022-07-09T05:04:41;5.20;;;2.40;;
54328;SDS011;40710;51.120;13.136;2022-07-09T05:07:05;7.07;;;2.95;;
54328;SDS011;40710;51.120;13.136;2022-07-09T05:09:29;19.23;;;4.40;;
54328;SDS011;40710;51.120;13.136;2022-07-09T05:11:54;5.05;;;2.53;;
54328;SDS011;40710;51.120;13.136;2022-07-09T05:14:18;5.70;;;2.45;;
54328;SDS011;40710;51.120;13.136;2022-07-09T05:16:42;4.72;;;2.45;;
54328;SDS011;40710;51.120;13.136;2022-07-09T05:19:08;9.73;;;2.63;;
54328;SDS011;40710;51.120;13.136;2022-07-09T05:21:33;6.50;;;2.22;;
54328;SDS011;40710;51.120;13.136;2022-07-09T05:23:57;3.60;;;2.38;;
54328;SDS011;40710;51.120;13.136;2022-07-09T05:26:21;7.65;;;4.55;;
54328;SDS011;40710;51.120;13.136;2022-07-09T05:28:46;7.18;;;3.05;;
54328;SDS011;40710;51.120;13.136;2022-07-09T05:31:10;7.35;;;2.58;;
54328;SDS011;40710;51.120;13.136;2022-07-09T05:33:34;4.68;;;2.10;;
54328;SDS011;40710;51.120;13.136;2022-07-09T05:35:59;3.67;;;2.03;;
54328;SDS011;40710;51.120;13.136;2022-07-09T05:38:23;4.18;;;2.40;;
54328;SDS011;40710;51.120;13.136;2022-07-09T05:40:47;5.05;;;2.50;;
54328;SDS011;40710;51.120;13.136;2022-07-09T05:43:12;4.60;;;2.78;;
54328;SDS011;40710;51.120;13.136;2022-07-09T05:45:36;5.70;;;2.50;;
54328;SDS011;40710;51.120;13.136;2022-07-09T05:48:00;5.57;;;2.40;;
54328;SDS011;40710;51.120;13.136;2022-07-09T05:50:25;5.10;;;2.22;;
54328;SDS011;40710;51.120;13.136;2022-07-09T05:52:49;4.25;;;2.05;;
54328;SDS011;40710;51.120;13.136;2022-07-09T05:55:14;6.30;;;2.35;;
54328;SDS011;40710;51.120;13.136;2022-07-09T05:57:39;6.03;;;2.55;;
54328;SDS011;40710;51.120;13.136;2022-07-09T06:00:03;5.00;;;2.30;;
54328;SDS011;40710;51.120;13.136;2022-07-09T06:02:28;4.57;;;2.38;;
54328;SDS011;40710;51.120;13.136;2022-07-09T06:04:53;3.97;;;2.58;;
54328;SDS011;40710;51.120;13.136;2022-07-09T06:07:17;4.72;;;2.35;;
54328;SDS011;40710;51.120;13.136;2022-07-09T06:09:41;6.88;;;2.88;;
54328;SDS011;40710;51.120;13.136;2022-07-09T06:12:06;4.53;;;2.60;;
54328;SDS011;40710;51.120;13.136;2022-07-09T06:14:31;6.57;;;2.42;;
54328;SDS011;40710;51.120;13.136;2022-07-09T06:16:56;9.80;;;4.75;;
54328;SDS011;40710;51.120;13.136;2022-07-09T06:19:21;7.45;;;3.97;;
54328;SDS011;40710;51.120;13.136;2022-07-09T06:21:45;4.60;;;2.53;;
54328;SDS011;40710;51.120;13.136;2022-07-09T06:24:10;6.30;;;3.05;;
54328;SDS011;40710;51.120;13.136;2022-07-09T06:26:34;7.45;;;2.85;;
54328;SDS011;40710;51.120;13.136;2022-07-09T06:28:59;6.00;;;2.83;;
54328;SDS011;40710;51.120;13.136;2022-07-09T06:31:24;8.10;;;2.70;;
54328;SDS011;40710;51.120;13.136;2022-07-09T06:33:48;11.93;;;8.45;;
54328;SDS011;40710;51.120;13.136;2022-07-09T06:36:12;5.85;;;3.13;;
54328;SDS011;40710;51.120;13.136;2022-07-09T06:38:37;6.45;;;3.55;;
54328;SDS011;40710;51.120;13.136;2022-07-09T06:41:21;5.78;;;2.95;;
54328;SDS011;40710;51.120;13.136;2022-07-09T06:43:46;4.43;;;2.80;;
54328;SDS011;40710;51.120;13.136;2022-07-09T06:46:10;5.28;;;3.30;;
54328;SDS011;40710;51.120;13.136;2022-07-09T06:48:34;8.48;;;3.50;;
54328;SDS011;40710;51.120;13.136;2022-07-09T06:50:59;6.28;;;3.53;;
54328;SDS011;40710;51.120;13.136;2022-07-09T06:53:23;8.23;;;3.75;;
54328;SDS011;40710;51.120;13.136;2022-07-09T06:55:47;5.57;;;3.60;;
54328;SDS011;40710;51.120;13.136;2022-07-09T06:58:12;6.65;;;3.70;;
54328;SDS011;40710;51.120;13.136;2022-07-09T07:00:36;6.95;;;4.35;;
54328;SDS011;40710;51.120;13.136;2022-07-09T07:03:00;7.47;;;4.30;;
54328;SDS011;40710;51.120;13.136;2022-07-09T07:05:25;6.93;;;4.13;;
54328;SDS011;40710;51.120;13.136;2022-07-09T07:07:50;7.43;;;4.15;;
54328;SDS011;40710;51.120;13.136;2022-07-09T07:10:14;7.70;;;4.38;;
54328;SDS011;40710;51.120;13.136;2022-07-09T07:12:39;7.20;;;4.28;;
54328;SDS011;40710;51.120;13.136;2022-07-09T07:15:04;7.20;;;4.05;;
54328;SDS011;40710;51.120;13.136;2022-07-09T07:17:29;9.68;;;4.18;;
54328;SDS011;40710;51.120;13.136;2022-07-09T07:19:53;8.07;;;4.60;;
54328;SDS011;40710;51.120;13.136;2022-07-09T07:22:18;9.95;;;4.72;;
54328;SDS011;40710;51.120;13.136;2022-07-09T07:24:42;6.05;;;3.95;;
54328;SDS011;40710;51.120;13.136;2022-07-09T07:27:07;7.13;;;4.50;;
54328;SDS011;40710;51.120;13.136;2022-07-09T07:29:31;6.05;;;4.28;;
54328;SDS011;40710;51.120;13.136;2022-07-09T07:31:55;7.60;;;4.40;;
54328;SDS011;40710;51.120;13.136;2022-07-09T07:34:21;7.15;;;3.47;;
54328;SDS011;40710;51.120;13.136;2022-07-09T07:36:47;6.53;;;3.80;;
54328;SDS011;40710;51.120;13.136;2022-07-09T07:39:13;5.35;;;2.80;;
54328;SDS011;40710;51.120;13.136;2022-07-09T07:41:37;4.95;;;2.53;;
54328;SDS011;40710;51.120;13.136;2022-07-09T07:44:02;4.82;;;2.60;;
54328;SDS011;40710;51.120;13.136;2022-07-09T07:46:26;4.82;;;2.58;;
54328;SDS011;40710;51.120;13.136;2022-07-09T07:48:51;5.35;;;2.28;;
54328;SDS011;40710;51.120;13.136;2022-07-09T07:51:15;3.30;;;1.98;;
54328;SDS011;40710;51.120;13.136;2022-07-09T07:53:40;4.55;;;2.20;;
54328;SDS011;40710;51.120;13.136;2022-07-09T07:56:05;5.18;;;2.40;;
54328;SDS011;40710;51.120;13.136;2022-07-09T07:58:30;4.53;;;2.60;;
54328;SDS011;40710;51.120;13.136;2022-07-09T08:00:55;4.82;;;2.30;;
54328;SDS011;40710;51.120;13.136;2022-07-09T08:03:19;4.53;;;2.42;;
54328;SDS011;40710;51.120;13.136;2022-07-09T08:05:44;3.83;;;2.00;;
54328;SDS011;40710;51.120;13.136;2022-07-09T08:08:08;4.57;;;2.58;;
54328;SDS011;40710;51.120;13.136;2022-07-09T08:10:32;4.38;;;2.30;;
54328;SDS011;40710;51.120;13.136;2022-07-09T08:12:57;3.63;;;2.17;;
54328;SDS011;40710;51.120;13.136;2022-07-09T08:15:21;5.53;;;2.00;;
54328;SDS011;40710;51.120;13.136;2022-07-09T08:17:46;3.45;;;1.95;;
54328;SDS011;40710;51.120;13.136;2022-07-09T08:20:10;5.18;;;2.47;;
54328;SDS011;40710;51.120;13.136;2022-07-09T08:22:35;5.13;;;2.33;;
54328;SDS011;40710;51.120;13.136;2022-07-09T08:25:00;6.65;;;3.30;;
54328;SDS011;40710;51.120;13.136;2022-07-09T08:27:24;3.38;;;2.17;;
54328;SDS011;40710;51.120;13.136;2022-07-09T08:29:48;5.75;;;2.08;;
54328;SDS011;40710;51.120;13.136;2022-07-09T08:32:13;3.42;;;1.90;;
54328;SDS011;40710;51.120;13.136;2022-07-09T08:34:37;4.25;;;2.22;;
54328;SDS011;40710;51.120;13.136;2022-07-09T08:37:02;3.65;;;2.10;;
54328;SDS011;40710;51.120;13.136;2022-07-09T08:39:26;3.42;;;1.90;;
54328;SDS011;40710;51.120;13.136;2022-07-09T08:41:51;4.72;;;2.10;;
54328;SDS011;40710;51.120;13.136;2022-07-09T08:44:15;5.63;;;2.42;;
54328;SDS011;40710;51.120;13.136;2022-07-09T08:46:41;4.03;;;2.25;;
54328;SDS011;40710;51.120;13.136;2022-07-09T08:49:06;3.78;;;2.13;;
54328;SDS011;40710;51.120;13.136;2022-07-09T08:51:31;3.83;;;2.10;;
54328;SDS011;40710;51.120;13.136;2022-07-09T08:53:56;2.95;;;1.73;;
54328;SDS011;40710;51.120;13.136;2022-07-09T08:56:20;5.60;;;1.83;;
54328;SDS011;40710;51.120;13.136;2022-07-09T08:58:45;4.85;;;2.00;;
54328;SDS011;40710;51.120;13.136;2022-07-09T09:01:12;3.65;;;2.20;;
54328;SDS011;40710;51.120;13.136;2022-07-09T09:03:37;8.52;;;2.80;;
54328;SDS011;40710;51.120;13.136;2022-07-09T09:06:08;5.05;;;2.47;;
54328;SDS011;40710;51.120;13.136;2022-07-09T09:08:35;4.82;;;2.03;;
54328;SDS011;40710;51.120;13.136;2022-07-09T09:11:02;4.18;;;2.05;;
54328;SDS011;40710;51.120;13.136;2022-07-09T09:13:27;2.97;;;1.92;;
54328;SDS011;40710;51.120;13.136;2022-07-09T09:16:07;4.00;;;2.10;;
54328;SDS011;40710;51.120;13.136;2022-07-09T09:18:34;3.72;;;1.95;;
54328;SDS011;40710;51.120;13.136;2022-07-09T09:21:03;2.65;;;1.70;;
54328;SDS011;40710;51.120;13.136;2022-07-09T09:23:28;2.67;;;1.65;;
54328;SDS011;40710;51.120;13.136;2022-07-09T09:25:52;3.72;;;1.88;;
54328;SDS011;40710;51.120;13.136;2022-07-09T09:28:17;3.83;;;1.90;;
54328;SDS011;40710;51.120;13.136;2022-07-09T09:30:42;3.53;;;1.70;;
54328;SDS011;40710;51.120;13.136;2022-07-09T09:33:13;2.70;;;1.77;;
54328;SDS011;40710;51.120;13.136;2022-07-09T09:35:43;4.68;;;2.05;;
54328;SDS011;40710;51.120;13.136;2022-07-09T09:38:08;4.00;;;2.30;;
54328;SDS011;40710;51.120;13.136;2022-07-09T09:40:33;5.60;;;2.88;;
54328;SDS011;40710;51.120;13.136;2022-07-09T09:43:00;4.00;;;2.13;;
54328;SDS011;40710;51.120;13.136;2022-07-09T09:45:26;4.63;;;2.00;;
54328;SDS011;40710;51.120;13.136;2022-07-09T09:47:51;4.60;;;2.30;;
54328;SDS011;40710;51.120;13.136;2022-07-09T09:50:17;3.72;;;2.17;;
54328;SDS011;40710;51.120;13.136;2022-07-09T09:52:44;4.20;;;2.08;;
54328;SDS011;40710;51.120;13.136;2022-07-09T09:55:10;3.92;;;2.47;;
54328;SDS011;40710;51.120;13.136;2022-07-09T09:57:36;3.17;;;1.90;;
54328;SDS011;40710;51.120;13.136;2022-07-09T10:00:02;3.88;;;2.10;;
54328;SDS011;40710;51.120;13.136;2022-07-09T10:02:26;3.97;;;2.15;;
54328;SDS011;40710;51.120;13.136;2022-07-09T10:04:51;2.97;;;1.73;;
54328;SDS011;40710;51.120;13.136;2022-07-09T10:07:16;5.18;;;2.13;;
54328;SDS011;40710;51.120;13.136;2022-07-09T10:09:41;3.13;;;2.00;;
54328;SDS011;40710;51.120;13.136;2022-07-09T10:12:24;4.50;;;2.20;;
54328;SDS011;40710;51.120;13.136;2022-07-09T10:14:52;6.32;;;2.80;;
54328;SDS011;40710;51.120;13.136;2022-07-09T10:17:17;4.47;;;2.00;;
54328;SDS011;40710;51.120;13.136;2022-07-09T10:19:51;3.30;;;1.60;;
54328;SDS011;40710;51.120;13.136;2022-07-09T10:22:18;3.38;;;2.05;;
54328;SDS011;40710;51.120;13.136;2022-07-09T10:24:43;3.70;;;1.83;;
54328;SDS011;40710;51.120;13.136;2022-07-09T10:27:10;3.55;;;1.90;;
54328;SDS011;40710;51.120;13.136;2022-07-09T10:29:35;2.72;;;1.63;;
54328;SDS011;40710;51.120;13.136;2022-07-09T10:32:21;3.80;;;2.00;;
54328;SDS011;40710;51.120;13.136;2022-07-09T10:40:08;6.78;;;1.92;;
54328;SDS011;40710;51.120;13.136;2022-07-09T10:42:37;2.70;;;1.67;;
54328;SDS011;40710;51.120;13.136;2022-07-09T10:45:02;2.92;;;1.40;;
54328;SDS011;40710;51.120;13.136;2022-07-09T10:47:37;3.50;;;1.77;;
54328;SDS011;40710;51.120;13.136;2022-07-09T10:50:04;3.85;;;1.55;;
54328;SDS011;40710;51.120;13.136;2022-07-09T10:52:29;2.30;;;1.38;;
54328;SDS011;40710;51.120;13.136;2022-07-09T10:54:54;2.13;;;1.30;;
54328;SDS011;40710;51.120;13.136;2022-07-09T10:57:19;4.18;;;1.70;;
54328;SDS011;40710;51.120;13.136;2022-07-09T10:59:44;4.05;;;1.60;;
54328;SDS011;40710;51.120;13.136;2022-07-09T11:02:16;4.03;;;2.08;;
54328;SDS011;40710;51.120;13.136;2022-07-09T11:04:47;4.90;;;2.20;;
54328;SDS011;40710;51.120;13.136;2022-07-09T11:07:18;6.00;;;2.28;;
54328;SDS011;40710;51.120;13.136;2022-07-09T11:09:52;3.15;;;1.65;;
54328;SDS011;40710;51.120;13.136;2022-07-09T11:12:17;3.38;;;1.70;;
54328;SDS011;40710;51.120;13.136;2022-07-09T11:14:46;4.28;;;2.15;;
54328;SDS011;40710;51.120;13.136;2022-07-09T11:17:19;8.27;;;1.90;;
54328;SDS011;40710;51.120;13.136;2022-07-09T11:19:45;2.22;;;1.48;;
54328;SDS011;40710;51.120;13.136;2022-07-09T11:22:09;4.20;;;1.52;;
54328;SDS011;40710;51.120;13.136;2022-07-09T11:24:34;2.63;;;1.67;;
54328;SDS011;40710;51.120;13.136;2022-07-09T11:27:01;2.53;;;1.60;;
54328;SDS011;40710;51.120;13.136;2022-07-09T11:29:26;4.20;;;1.60;;
54328;SDS011;40710;51.120;13.136;2022-07-09T11:31:51;4.25;;;1.80;;
54328;SDS011;40710;51.120;13.136;2022-07-09T11:34:16;4.57;;;1.60;;
54328;SDS011;40710;51.120;13.136;2022-07-09T11:36:45;2.42;;;1.52;;
54328;SDS011;40710;51.120;13.136;2022-07-09T11:39:30;4.63;;;2.50;;
54328;SDS011;40710;51.120;13.136;2022-07-09T11:41:58;4.30;;;2.13;;
54328;SDS011;40710;51.120;13.136;2022-07-09T11:44:24;3.97;;;1.85;;
54328;SDS011;40710;51.120;13.136;2022-07-09T11:49:46;4.30;;;1.90;;
54328;SDS011;40710;51.120;13.136;2022-07-09T11:52:16;3.08;;;1.98;;
54328;SDS011;40710;51.120;13.136;2022-07-09T11:57:19;4.32;;;2.05;;
54328;SDS011;40710;51.120;13.136;2022-07-09T11:59:46;3.40;;;1.80;;
54328;SDS011;40710;51.120;13.136;2022-07-09T12:02:10;3.85;;;2.00;;
54328;SDS011;40710;51.120;13.136;2022-07-09T12:04:34;2.50;;;1.70;;
54328;SDS011;40710;51.120;13.136;2022-07-09T12:06:59;4.28;;;1.77;;
54328;SDS011;40710;51.120;13.136;2022-07-09T12:09:27;3.47;;;1.92;;
54328;SDS011;40710;51.120;13.136;2022-07-09T12:11:52;3.95;;;2.00;;
54328;SDS011;40710;51.120;13.136;2022-07-09T12:14:17;2.70;;;1.83;;
54328;SDS011;40710;51.120;13.136;2022-07-09T12:16:41;5.40;;;2.58;;
54328;SDS011;40710;51.120;13.136;2022-07-09T12:19:06;9.48;;;5.97;;
54328;SDS011;40710;51.120;13.136;2022-07-09T12:21:30;5.90;;;3.03;;
54328;SDS011;40710;51.120;13.136;2022-07-09T12:23:55;3.83;;;2.60;;
54328;SDS011;40710;51.120;13.136;2022-07-09T12:26:20;5.50;;;2.45;;
54328;SDS011;40710;51.120;13.136;2022-07-09T12:28:44;4.00;;;2.30;;
54328;SDS011;40710;51.120;13.136;2022-07-09T12:31:09;4.07;;;2.08;;
54328;SDS011;40710;51.120;13.136;2022-07-09T12:33:33;3.45;;;2.15;;
54328;SDS011;40710;51.120;13.136;2022-07-09T12:35:58;4.65;;;2.17;;
54328;SDS011;40710;51.120;13.136;2022-07-09T12:38:22;3.80;;;2.00;;
54328;SDS011;40710;51.120;13.136;2022-07-09T12:40:46;3.88;;;2.33;;
54328;SDS011;40710;51.120;13.136;2022-07-09T12:43:11;4.25;;;2.80;;
54328;SDS011;40710;51.120;13.136;2022-07-09T12:45:35;6.28;;;3.15;;
54328;SDS011;40710;51.120;13.136;2022-07-09T12:47:59;4.32;;;2.90;;
54328;SDS011;40710;51.120;13.136;2022-07-09T12:50:24;3.45;;;2.17;;
54328;SDS011;40710;51.120;13.136;2022-07-09T12:52:48;4.40;;;2.53;;
54328;SDS011;40710;51.120;13.136;2022-07-09T12:55:12;5.40;;;2.22;;
54328;SDS011;40710;51.120;13.136;2022-07-09T12:57:37;3.22;;;1.98;;
54328;SDS011;40710;51.120;13.136;2022-07-09T13:00:03;4.15;;;2.05;;
54328;SDS011;40710;51.120;13.136;2022-07-09T13:02:28;2.40;;;1.60;;
54328;SDS011;40710;51.120;13.136;2022-07-09T13:04:52;2.88;;;1.85;;
54328;SDS011;40710;51.120;13.136;2022-07-09T13:07:17;4.07;;;2.75;;
54328;SDS011;40710;51.120;13.136;2022-07-09T13:09:42;4.93;;;3.40;;
54328;SDS011;40710;51.120;13.136;2022-07-09T13:12:06;4.25;;;2.08;;
54328;SDS011;40710;51.120;13.136;2022-07-09T13:14:31;2.95;;;1.50;;
54328;SDS011;40710;51.120;13.136;2022-07-09T13:16:55;3.40;;;1.83;;
54328;SDS011;40710;51.120;13.136;2022-07-09T13:19:19;2.63;;;1.65;;
54328;SDS011;40710;51.120;13.136;2022-07-09T13:21:44;3.72;;;1.63;;
54328;SDS011;40710;51.120;13.136;2022-07-09T13:24:08;2.88;;;1.60;;
54328;SDS011;40710;51.120;13.136;2022-07-09T13:26:32;4.75;;;1.90;;
54328;SDS011;40710;51.120;13.136;2022-07-09T13:28:57;2.72;;;1.70;;
54328;SDS011;40710;51.120;13.136;2022-07-09T13:31:22;6.40;;;3.00;;
54328;SDS011;40710;51.120;13.136;2022-07-09T13:33:47;5.28;;;3.40;;
54328;SDS011;40710;51.120;13.136;2022-07-09T13:36:11;3.70;;;2.05;;
54328;SDS011;40710;51.120;13.136;2022-07-09T13:38:36;3.65;;;1.60;;
54328;SDS011;40710;51.120;13.136;2022-07-09T13:41:00;3.13;;;1.52;;
54328;SDS011;40710;51.120;13.136;2022-07-09T13:43:25;3.60;;;1.60;;
54328;SDS011;40710;51.120;13.136;2022-07-09T13:45:50;2.22;;;1.40;;
54328;SDS011;40710;51.120;13.136;2022-07-09T13:48:14;2.08;;;1.30;;
54328;SDS011;40710;51.120;13.136;2022-07-09T13:50:39;2.58;;;1.48;;
54328;SDS011;40710;51.120;13.136;2022-07-09T13:53:03;2.35;;;1.30;;
54328;SDS011;40710;51.120;13.136;2022-07-09T13:55:28;5.35;;;3.25;;
54328;SDS011;40710;51.120;13.136;2022-07-09T13:57:53;6.57;;;3.10;;
54328;SDS011;40710;51.120;13.136;2022-07-09T14:00:18;2.72;;;1.40;;
54328;SDS011;40710;51.120;13.136;2022-07-09T14:02:42;2.90;;;1.40;;
54328;SDS011;40710;51.120;13.136;2022-07-09T14:05:06;2.75;;;1.33;;
54328;SDS011;40710;51.120;13.136;2022-07-09T14:07:31;1.92;;;1.33;;
54328;SDS011;40710;51.120;13.136;2022-07-09T14:09:55;2.42;;;1.42;;
54328;SDS011;40710;51.120;13.136;2022-07-09T14:12:20;2.15;;;1.42;;
54328;SDS011;40710;51.120;13.136;2022-07-09T14:14:47;2.30;;;1.30;;
54328;SDS011;40710;51.120;13.136;2022-07-09T14:17:11;1.27;;;1.17;;
54328;SDS011;40710;51.120;13.136;2022-07-09T14:19:36;5.10;;;1.70;;
54328;SDS011;40710;51.120;13.136;2022-07-09T14:22:01;7.85;;;5.63;;
54328;SDS011;40710;51.120;13.136;2022-07-09T14:24:25;3.13;;;1.80;;
54328;SDS011;40710;51.120;13.136;2022-07-09T14:26:50;2.90;;;1.65;;
54328;SDS011;40710;51.120;13.136;2022-07-09T14:29:14;2.67;;;1.80;;
54328;SDS011;40710;51.120;13.136;2022-07-09T14:31:39;2.63;;;2.05;;